Time;durP1;ratioP1;P1;durP2;ratioP2;P2;SDS_P1;SDS_P2;PMS_P1;PMS_P2;Temp;Humidity;BMP_temperature;BMP_pressure;BME280_temperature;BME280_humidity;BME280_pressure;Samples;Min_cycle;Max_cycle;Signal;HPM_P1;HPM_P2
2023/07/04 00:01:46;;;;;;;;;;;20.00;48.70;;;16.12;86.93;95507.31;4945971;29;20008;-47
2023/07/04 00:04:13;;;;;;;;;;;20.00;48.80;;;16.14;87.39;95507.81;4951045;28;19910;-49
2023/07/04 00:06:39;;;;;;;;;;;20.10;48.90;;;16.16;87.25;95509.06;4941746;29;19925;-49
2023/07/04 00:09:07;;;;;;;;;;;20.10;48.90;;;16.16;86.87;95505.59;4945959;28;19910;-48
2023/07/04 00:11:33;;;;;;;;;;;20.10;48.90;;;16.17;86.20;95496.47;4947543;28;20381;-50
2023/07/04 00:14:00;;;;;;;;;;;20.20;49.00;;;16.19;85.55;95505.78;4934506;29;19936;-45
2023/07/04 00:16:25;;;;;;;;;;;20.20;49.00;;;16.15;88.13;95499.44;4940814;28;20477;-43
2023/07/04 00:18:51;;;;;;;;;;;20.10;49.00;;;16.16;87.54;95492.97;4950100;28;19918;-44
2023/07/04 00:21:18;;;;;;;;;;;20.20;49.00;;;16.23;87.96;95489.84;4934033;29;20333;-43
2023/07/04 00:23:47;;;;;;;;;;;20.20;49.10;;;16.24;88.16;95486.09;4948395;28;19917;-43
2023/07/04 00:26:17;;;;;;;;;;;20.10;49.10;;;16.22;87.71;95490.16;4951917;28;20292;-45
2023/07/04 00:28:43;;;;;;;;;;;20.20;49.30;;;16.22;87.67;95493.66;4948290;28;20317;-46
2023/07/04 00:31:15;;;;;;;;;;;20.10;49.20;;;16.22;88.22;95496.34;4943566;29;19964;-43
2023/07/04 00:33:42;;;;;;;;;;;20.20;49.30;;;16.22;88.01;95488.28;4962465;28;20289;-46
2023/07/04 00:36:15;;;;;;;;;;;20.20;49.40;;;16.24;88.62;95490.69;4944927;28;20403;-45
2023/07/04 00:38:41;;;;;;;;;;;20.20;49.50;;;16.24;89.00;95493.38;4945559;28;19957;-44
2023/07/04 00:41:22;;;;;;;;;;;20.20;49.60;;;16.24;89.74;95499.53;4946447;29;19932;-45
2023/07/04 00:44:19;;;;;;;;;;;20.20;49.60;;;16.26;89.53;95501.91;4969054;28;19917;-45
2023/07/04 00:47:15;;;;;;;;;;;20.20;49.70;;;16.29;89.17;95503.97;4950347;28;19910;-43
2023/07/04 00:49:49;;;;;;;;;;;20.20;49.70;;;16.30;89.30;95510.97;4950955;28;19965;-43
2023/07/04 00:52:24;;;;;;;;;;;20.30;49.80;;;16.30;88.48;95509.06;4946915;28;20352;-46
2023/07/04 00:54:57;;;;;;;;;;;20.20;49.80;;;16.32;89.61;95511.44;4970547;28;20258;-44
2023/07/04 00:57:37;;;;;;;;;;;20.20;49.90;;;16.26;88.87;95508.06;4970445;28;19984;-43
2023/07/04 01:00:23;;;;;;;;;;;20.30;49.90;;;16.29;88.39;95512.03;4947571;28;20354;-43
2023/07/04 01:03:06;;;;;;;;;;;20.30;50.00;;;16.31;88.33;95510.66;4948858;28;19922;-44
2023/07/04 01:06:04;;;;;;;;;;;20.30;50.00;;;16.33;89.37;95516.53;4950241;28;19921;-43
2023/07/04 01:08:42;;;;;;;;;;;20.30;50.10;;;16.30;88.57;95509.06;4976181;23;19925;-46
2023/07/04 01:11:25;;;;;;;;;;;20.30;50.20;;;16.32;89.24;95514.13;4972546;28;20008;-45
2023/07/04 01:13:53;;;;;;;;;;;20.30;50.20;;;16.33;89.70;95521.13;4974077;28;19917;-45
2023/07/04 01:16:19;;;;;;;;;;;20.30;50.30;;;16.32;89.18;95522.19;4975643;28;19914;-46
2023/07/04 01:18:55;;;;;;;;;;;20.30;50.40;;;16.31;89.63;95521.41;4975691;28;19949;-46
2023/07/04 01:21:26;;;;;;;;;;;20.30;50.40;;;16.33;90.00;95519.22;4964984;28;19932;-47
2023/07/04 01:24:28;;;;;;;;;;;20.30;50.60;;;16.34;90.15;95515.41;4973761;28;19910;-48
2023/07/04 01:26:54;;;;;;;;;;;20.30;50.70;;;16.36;90.99;95523.19;4956267;28;19910;-45
2023/07/04 01:29:21;;;;;;;;;;;20.30;50.70;;;16.32;91.84;95527.56;4975678;28;19914;-45
2023/07/04 01:31:47;;;;;;;;;;;20.30;50.80;;;16.28;93.12;95524.69;4973275;28;20000;-50
2023/07/04 01:34:18;;;;;;;;;;;20.30;50.80;;;16.27;92.65;95522.31;4968326;28;20000;-46
2023/07/04 01:36:44;;;;;;;;;;;20.30;50.90;;;16.13;94.11;95525.81;4974140;28;19920;-46
2023/07/04 01:39:14;;;;;;;;;;;20.30;50.90;;;16.11;96.43;95519.97;4960085;28;19914;-44
2023/07/04 01:41:45;;;;;;;;;;;20.20;51.00;;;16.12;96.27;95526.13;4971780;28;19910;-45
2023/07/04 01:44:14;;;;;;;;;;;20.20;51.10;;;16.12;96.40;95520.75;4964324;28;20004;-45
2023/07/04 01:46:40;;;;;;;;;;;20.20;51.30;;;16.06;95.83;95519.25;4973323;28;20012;-47
2023/07/04 01:49:05;;;;;;;;;;;20.10;51.30;;;16.02;96.63;95516.38;4974435;28;20008;-45
2023/07/04 01:51:38;;;;;;;;;;;20.10;51.40;;;16.03;97.33;95517.16;4972553;28;19910;-49
2023/07/04 01:54:07;;;;;;;;;;;20.10;51.50;;;16.04;98.17;95521.44;4974898;28;19910;-45
2023/07/04 01:56:36;;;;;;;;;;;20.10;52.20;;;15.98;99.58;95511.91;4967502;28;19961;-44
2023/07/04 01:59:02;;;;;;;;;;;20.00;51.70;;;15.92;99.93;95522.75;4975414;28;19988;-46
2023/07/04 02:01:27;;;;;;;;;;;20.00;52.00;;;15.92;99.63;95517.38;4970950;28;19918;-47
2023/07/04 02:03:53;;;;;;;;;;;20.00;51.90;;;15.94;99.22;95514.38;4968112;28;19932;-47
2023/07/04 02:06:20;;;;;;;;;;;20.00;52.00;;;15.89;99.19;95520.69;4974896;28;19910;-46
2023/07/04 02:08:45;;;;;;;;;;;19.90;52.00;;;15.88;99.27;95527.13;4966720;28;19925;-45
2023/07/04 02:11:12;;;;;;;;;;;19.90;52.20;;;15.88;99.52;95518.28;4970638;28;19909;-45
2023/07/04 02:13:39;;;;;;;;;;;19.90;52.20;;;15.88;99.72;95513.69;4968611;28;19921;-49
2023/07/04 02:16:05;;;;;;;;;;;19.90;52.30;;;15.86;99.63;95526.63;4963760;28;20368;-46
2023/07/04 02:18:31;;;;;;;;;;;19.90;52.40;;;15.86;99.16;95526.63;4975005;28;19909;-46
2023/07/04 02:20:57;;;;;;;;;;;19.90;52.50;;;15.85;99.84;95529.63;4972632;28;19910;-48
2023/07/04 02:23:23;;;;;;;;;;;19.90;52.60;;;15.83;100.00;95526.44;4974776;28;19909;-46
2023/07/04 02:25:48;;;;;;;;;;;19.80;52.60;;;15.86;100.00;95525.84;4968845;28;19909;-45
2023/07/04 02:28:14;;;;;;;;;;;19.90;52.70;;;15.86;100.00;95517.78;4974634;28;19909;-45
2023/07/04 02:30:40;;;;;;;;;;;19.90;52.80;;;15.87;100.00;95522.84;4974753;28;19909;-45
2023/07/04 02:33:06;;;;;;;;;;;19.90;52.90;;;15.88;99.39;95526.31;4957922;28;19917;-46
2023/07/04 02:35:32;;;;;;;;;;;19.90;52.90;;;15.86;98.81;95517.78;4970426;28;19955;-50
2023/07/04 02:37:58;;;;;;;;;;;19.90;53.00;;;15.86;98.44;95515.09;4965166;28;20008;-46
2023/07/04 02:40:24;;;;;;;;;;;19.90;53.00;;;15.85;100.00;95513.50;4970251;28;19964;-46
2023/07/04 02:42:50;;;;;;;;;;;19.90;53.00;;;15.84;100.00;95528.81;4969871;28;20348;-45
2023/07/04 02:45:16;;;;;;;;;;;19.90;53.10;;;15.87;100.00;95520.16;4956180;28;20288;-47
2023/07/04 02:47:41;;;;;;;;;;;19.90;53.20;;;15.87;100.00;95528.22;4974379;28;19916;-47
2023/07/04 02:50:08;;;;;;;;;;;19.90;53.20;;;15.89;100.00;95528.72;4959833;28;20378;-45
2023/07/04 02:52:33;;;;;;;;;;;19.90;53.30;;;15.90;100.00;95521.47;4973963;28;19909;-48
2023/07/04 02:55:00;;;;;;;;;;;19.90;53.40;;;15.87;100.00;95520.16;4973503;28;19932;-50
2023/07/04 02:57:26;;;;;;;;;;;19.90;53.40;;;15.90;100.00;95524.94;4963413;28;19936;-45
2023/07/04 02:59:52;;;;;;;;;;;19.90;53.50;;;15.87;100.00;95522.06;4974415;28;20423;-46
2023/07/04 03:02:18;;;;;;;;;;;19.90;53.60;;;15.86;100.00;95521.28;4970907;28;20280;-45
2023/07/04 03:04:46;;;;;;;;;;;19.90;53.70;;;15.88;100.00;95515.59;4970208;28;19948;-45
2023/07/04 03:07:11;;;;;;;;;;;19.90;53.70;;;15.88;100.00;95519.06;4970289;28;19917;-45
2023/07/04 03:09:38;;;;;;;;;;;19.90;53.80;;;15.87;100.00;95514.78;4965195;28;20277;-46
2023/07/04 03:12:05;;;;;;;;;;;19.90;53.90;;;15.86;100.00;95510.53;4965417;28;19950;-46
2023/07/04 03:14:30;;;;;;;;;;;19.90;53.90;;;15.86;100.00;95517.78;4965128;28;19910;-45
2023/07/04 03:16:56;;;;;;;;;;;19.90;54.00;;;15.86;100.00;95513.22;4975323;28;20387;-45
2023/07/04 03:19:22;;;;;;;;;;;19.90;54.00;;;15.87;100.00;95516.69;4971755;28;19917;-46
2023/07/04 03:21:48;;;;;;;;;;;19.90;54.10;;;15.85;100.00;95518.88;4964866;28;19918;-45
2023/07/04 03:24:13;;;;;;;;;;;19.90;54.20;;;15.82;100.00;95511.41;4973775;28;19964;-48
2023/07/04 03:26:40;;;;;;;;;;;19.90;54.20;;;15.81;100.00;95513.31;4970266;28;20032;-47
2023/07/04 03:29:07;;;;;;;;;;;19.80;54.20;;;15.81;100.00;95512.50;4974313;28;19909;-48
2023/07/04 03:31:33;;;;;;;;;;;19.80;54.30;;;15.81;100.00;95510.63;4969535;28;20270;-48
2023/07/04 03:33:58;;;;;;;;;;;19.80;54.30;;;15.82;100.00;95512.19;4961455;28;19910;-49
2023/07/04 03:36:24;;;;;;;;;;;19.90;54.40;;;15.83;100.00;95513.03;4973653;28;19960;-48
2023/07/04 03:38:50;;;;;;;;;;;19.80;54.40;;;15.79;100.00;95512.78;4962868;28;19909;-48
2023/07/04 03:41:16;;;;;;;;;;;19.80;54.50;;;15.82;100.00;95514.09;4974319;28;20269;-48
2023/07/04 03:43:41;;;;;;;;;;;19.80;54.50;;;15.80;100.00;95505.56;4972718;28;20274;-49
2023/07/04 03:46:07;;;;;;;;;;;19.80;54.60;;;15.80;100.00;95514.41;4989115;28;19910;-48
2023/07/04 03:48:34;;;;;;;;;;;19.90;54.70;;;15.81;100.00;95513.31;4973757;28;20442;-46
2023/07/04 03:50:59;;;;;;;;;;;19.90;54.70;;;15.81;100.00;95513.31;4968116;28;19997;-48
2023/07/04 03:53:25;;;;;;;;;;;19.90;54.70;;;15.81;100.00;95513.31;4974182;28;19996;-48
2023/07/04 03:55:51;;;;;;;;;;;19.90;54.80;;;15.82;100.00;95519.47;4967058;28;20018;-48
2023/07/04 03:58:22;;;;;;;;;;;19.90;54.80;;;15.72;100.00;95521.25;4971227;28;19914;-48
2023/07/04 04:00:51;;;;;;;;;;;19.90;54.80;;;15.81;100.00;95525.94;4973680;28;19921;-46
2023/07/04 04:03:16;;;;;;;;;;;19.90;54.90;;;15.81;100.00;95524.03;4960286;28;19917;-49
2023/07/04 04:05:43;;;;;;;;;;;19.90;54.90;;;15.82;100.00;95524.84;4974352;28;19992;-50
2023/07/04 04:08:09;;;;;;;;;;;19.90;55.00;;;15.84;100.00;95528.81;4969839;28;19917;-51
2023/07/04 04:10:35;;;;;;;;;;;19.90;55.00;;;15.87;100.00;95528.22;4961690;28;19918;-49
2023/07/04 04:13:01;;;;;;;;;;;19.90;55.00;;;15.89;100.00;95534.09;4972738;28;19941;-49
2023/07/04 04:15:27;;;;;;;;;;;20.00;55.10;;;15.93;100.00;95523.56;4953020;28;19910;-51
2023/07/04 04:17:54;;;;;;;;;;;20.00;55.10;;;15.95;100.00;95534.78;4970101;28;19914;-49
2023/07/04 04:20:20;;;;;;;;;;;20.00;55.10;;;15.96;100.00;95534.50;4957873;28;20423;-52
2023/07/04 04:22:47;;;;;;;;;;;20.00;55.10;;;15.98;100.00;95539.53;4958407;28;19937;-50
2023/07/04 04:25:15;;;;;;;;;;;20.10;55.10;;;15.94;100.00;95535.88;4958181;28;19910;-48
2023/07/04 04:27:46;;;;;;;;;;;20.10;55.10;;;15.98;99.98;95541.44;4958864;28;19914;-50
2023/07/04 04:30:13;;;;;;;;;;;20.10;55.80;;;16.04;99.78;95538.34;4958902;28;19910;-52
2023/07/04 04:32:40;;;;;;;;;;;20.20;55.10;;;16.10;99.33;95542.53;4963929;28;19910;-50
2023/07/04 04:35:08;;;;;;;;;;;20.20;55.10;;;16.13;97.42;95544.63;4958792;28;19940;-52
2023/07/04 04:37:35;;;;;;;;;;;20.30;55.10;;;16.16;96.05;95544.00;4957544;28;20025;-53
2023/07/04 04:40:01;;;;;;;;;;;20.30;55.00;;;16.18;94.23;95551.78;4958622;28;19910;-52
2023/07/04 04:42:31;;;;;;;;;;;20.40;54.90;;;16.25;93.59;95552.16;4958758;28;19918;-50
2023/07/04 04:44:57;;;;;;;;;;;20.50;54.90;;;16.35;93.26;95551.16;4957536;28;19911;-51
2023/07/04 04:47:25;;;;;;;;;;;20.60;54.80;;;16.47;92.12;95550.66;4959021;28;19968;-53
2023/07/04 04:49:52;;;;;;;;;;;20.70;54.80;;;16.69;91.62;95552.56;4957437;28;19910;-53
2023/07/04 04:52:23;;;;;;;;;;;20.80;54.70;;;16.84;89.85;95552.25;4958819;28;19913;-52
2023/07/04 04:54:49;;;;;;;;;;;20.90;54.60;;;16.95;89.57;95560.88;4957158;28;19933;-49
2023/07/04 04:57:16;;;;;;;;;;;21.00;54.50;;;17.05;89.35;95561.44;4957300;28;19913;-52
2023/07/04 04:59:42;;;;;;;;;;;21.20;54.40;;;17.11;88.53;95556.72;4958469;28;19917;-53
2023/07/04 05:02:11;;;;;;;;;;;21.30;54.30;;;17.22;87.57;95560.75;4957598;28;20400;-53
2023/07/04 05:04:37;;;;;;;;;;;21.40;54.20;;;17.29;86.38;95561.09;4958546;28;19910;-50
2023/07/04 05:07:04;;;;;;;;;;;21.60;54.00;;;17.41;86.58;95559.75;4959696;28;19921;-45
2023/07/04 05:09:30;;;;;;;;;;;21.70;53.80;;;17.46;86.61;95565.03;4959190;28;19956;-49
2023/07/04 05:11:56;;;;;;;;;;;21.80;54.40;;;17.47;84.75;95567.41;4959389;28;19985;-50
2023/07/04 05:14:22;;;;;;;;;;;21.90;54.40;;;17.49;85.06;95575.97;4958942;28;20056;-48
2023/07/04 05:16:48;;;;;;;;;;;21.80;53.60;;;17.53;84.93;95576.94;4952518;28;19918;-49
2023/07/04 05:19:14;;;;;;;;;;;21.80;53.60;;;17.51;84.94;95578.34;4953624;28;20340;-53
2023/07/04 05:21:41;;;;;;;;;;;21.90;53.60;;;17.51;85.33;95587.22;4947965;28;19917;-53
2023/07/04 05:24:07;;;;;;;;;;;21.90;53.50;;;17.58;85.25;95582.19;4960236;28;20098;-51
2023/07/04 05:26:33;;;;;;;;;;;21.90;53.40;;;17.62;85.39;95570.81;4958377;28;20009;-53
2023/07/04 05:28:59;;;;;;;;;;;21.90;53.40;;;17.60;85.53;95586.47;4952351;28;19914;-51
2023/07/04 05:31:28;;;;;;;;;;;21.90;53.30;;;17.62;85.53;95574.28;4956804;28;19918;-48
2023/07/04 05:33:56;;;;;;;;;;;22.00;53.30;;;17.69;85.67;95582.72;4954639;28;19936;-54
2023/07/04 05:36:26;;;;;;;;;;;22.00;53.20;;;17.73;84.99;95589.06;4956565;28;19914;-52
2023/07/04 05:38:54;;;;;;;;;;;22.10;53.20;;;17.77;84.79;95592.00;4955807;28;19957;-51
2023/07/04 05:41:23;;;;;;;;;;;22.20;53.00;;;17.85;84.83;95580.44;4957347;28;19910;-52
2023/07/04 05:43:49;;;;;;;;;;;22.30;53.00;;;17.88;84.44;95587.13;4960617;28;20253;-51
2023/07/04 05:46:17;;;;;;;;;;;22.30;53.00;;;17.92;83.81;95590.75;4961150;28;19916;-51
2023/07/04 05:48:44;;;;;;;;;;;22.40;53.00;;;17.98;83.58;95594.91;4956752;28;20352;-50
2023/07/04 05:51:13;;;;;;;;;;;22.30;52.90;;;18.02;83.79;95588.59;4956082;28;19920;-53
2023/07/04 05:53:41;;;;;;;;;;;22.40;52.80;;;18.04;83.82;95589.06;4957096;28;20012;-53
2023/07/04 05:56:38;;;;;;;;;;;22.40;52.80;;;18.03;83.19;95592.09;4956342;28;19934;-51
2023/07/04 05:59:04;;;;;;;;;;;22.50;52.70;;;18.10;83.57;95588.94;4955949;28;20014;-49
2023/07/04 06:01:40;;;;;;;;;;;22.50;52.70;;;18.06;83.72;95587.97;4957070;28;20261;-51
2023/07/04 06:04:09;;;;;;;;;;;22.50;52.60;;;18.22;83.65;95600.72;4957563;28;19910;-50
2023/07/04 06:06:42;;;;;;;;;;;22.60;52.50;;;18.50;82.73;95597.78;4956272;28;19917;-50
2023/07/04 06:09:15;;;;;;;;;;;22.90;52.40;;;18.90;80.50;95598.50;4955964;28;19929;-49
2023/07/04 06:11:48;;;;;;;;;;;23.30;52.30;;;19.28;78.34;95597.06;4955652;28;19910;-51
2023/07/04 06:14:28;;;;;;;;;;;23.70;52.10;;;19.66;74.61;95593.69;4955489;28;19917;-51
2023/07/04 06:16:57;;;;;;;;;;;24.20;51.90;;;20.08;73.62;95600.84;4945108;28;20392;-49
2023/07/04 06:19:24;;;;;;;;;;;24.60;51.50;;;20.47;71.31;95590.78;4953568;28;19917;-52
2023/07/04 06:21:50;;;;;;;;;;;25.10;51.20;;;20.90;68.92;95587.03;4955033;28;19916;-52
2023/07/04 06:24:17;;;;;;;;;;;25.60;50.80;;;21.23;66.05;95594.41;4955389;28;19909;-50
2023/07/04 06:26:44;;;;;;;;;;;26.10;50.40;;;21.47;65.41;95589.13;4954589;28;19964;-51
2023/07/04 06:29:10;;;;;;;;;;;26.50;49.90;;;21.74;64.69;95586.13;4954233;28;19910;-48
2023/07/04 06:31:41;;;;;;;;;;;27.00;49.30;;;21.92;63.20;95582.09;4951058;28;19921;-53
2023/07/04 06:34:08;;;;;;;;;;;27.40;48.90;;;22.20;61.83;95584.19;4953153;28;20008;-52
2023/07/04 06:36:33;;;;;;;;;;;27.80;48.40;;;22.46;61.02;95587.34;4953526;28;19921;-53
2023/07/04 06:39:03;;;;;;;;;;;28.10;47.90;;;22.80;60.31;95577.91;4951332;28;19910;-52
2023/07/04 06:41:29;;;;;;;;;;;28.50;47.60;;;23.28;58.83;95584.38;4954710;28;19917;-52
2023/07/04 06:43:55;;;;;;;;;;;28.90;47.20;;;23.54;57.57;95585.84;4947588;28;20027;-52
2023/07/04 06:46:22;;;;;;;;;;;29.50;46.70;;;23.71;56.70;95577.38;4954546;28;19917;-48
2023/07/04 06:48:50;;;;;;;;;;;29.80;46.40;;;23.83;56.48;95578.47;4974328;28;19914;-49
2023/07/04 06:51:18;;;;;;;;;;;30.00;45.90;;;23.93;55.98;95583.38;4969298;28;19909;-52
2023/07/04 06:53:45;;;;;;;;;;;30.10;45.70;;;23.77;55.55;95577.91;4974831;28;20300;-53
2023/07/04 06:56:18;;;;;;;;;;;30.00;45.50;;;23.56;56.50;95591.72;4965620;28;19910;-50
2023/07/04 06:58:50;;;;;;;;;;;30.00;45.30;;;;;;4974426;28;20432;-52
2023/07/04 07:01:18;;;;;;;;;;;29.70;44.90;;;22.94;58.45;95579.47;4972907;28;19910;-49
2023/07/04 07:03:44;;;;;;;;;;;29.50;44.80;;;23.01;58.53;95582.44;4963488;28;20012;-50
2023/07/04 07:06:12;;;;;;;;;;;29.30;44.80;;;22.97;58.77;95574.19;4973226;28;20040;-49
2023/07/04 07:08:38;;;;;;;;;;;29.10;44.70;;;;;;4982503;23;19976;-51
2023/07/04 07:11:09;;;;;;;;;;;29.10;44.60;;;23.35;58.06;95586.50;4953541;28;20116;-50
2023/07/04 07:13:36;;;;;;;;;;;29.30;44.60;;;23.55;56.87;95577.31;4948077;28;19910;-48
2023/07/04 07:16:06;;;;;;;;;;;29.50;44.50;;;23.74;55.71;95573.19;4951908;28;19921;-48
2023/07/04 07:18:34;;;;;;;;;;;29.70;44.40;;;23.97;55.21;95576.09;4954014;28;19965;-48
2023/07/04 07:21:01;;;;;;;;;;;29.90;44.20;;;24.27;55.01;95584.59;4949249;28;19968;-53
2023/07/04 07:23:28;;;;;;;;;;;30.30;44.10;;;24.65;53.77;95578.50;4946005;28;19910;-47
2023/07/04 07:25:59;;;;;;;;;;;30.60;43.90;;;24.70;51.15;95578.25;4948759;28;20009;-48
2023/07/04 07:28:27;;;;;;;;;;;30.90;43.60;;;24.97;51.39;95572.97;4947192;28;19916;-49
2023/07/04 07:31:04;;;;;;;;;;;31.20;43.30;;;25.11;51.26;95578.72;4954396;28;19980;-51
2023/07/04 07:33:35;;;;;;;;;;;31.40;43.10;;;25.26;50.18;95585.28;4940401;28;19910;-48
2023/07/04 07:36:10;;;;;;;;;;;31.50;42.80;;;25.31;50.19;95585.00;4945652;28;19914;-50
2023/07/04 07:38:35;;;;;;;;;;;31.60;42.40;;;25.27;48.49;95577.91;4943955;28;19921;-49
2023/07/04 07:41:02;;;;;;;;;;;31.70;42.00;;;25.23;48.70;95577.03;4943403;28;19914;-51
2023/07/04 07:43:28;;;;;;;;;;;31.80;41.80;;;25.05;49.31;95580.16;4953307;28;19922;-48
2023/07/04 07:45:53;;;;;;;;;;;31.80;41.40;;;25.03;49.46;95581.66;4945756;28;20427;-48
2023/07/04 07:48:19;;;;;;;;;;;31.80;41.30;;;25.19;49.59;95576.94;4949801;28;20380;-48
2023/07/04 07:50:45;;;;;;;;;;;31.80;41.20;;;25.21;49.11;95574.66;4944366;28;19914;-48
2023/07/04 07:53:14;;;;;;;;;;;31.80;41.10;;;25.18;49.28;95569.94;4949430;28;20365;-50
2023/07/04 07:55:41;;;;;;;;;;;31.70;41.00;;;25.09;49.83;95569.31;4953236;28;19910;-51
2023/07/04 07:58:08;;;;;;;;;;;31.60;40.90;;;24.97;50.14;95570.25;4940925;28;19914;-48
2023/07/04 08:00:34;;;;;;;;;;;31.60;40.90;;;24.91;49.81;95574.41;4954097;28;20068;-49
2023/07/04 08:03:00;;;;;;;;;;;31.60;40.80;;;24.93;49.31;95572.13;4952779;28;20439;-54
2023/07/04 08:05:26;;;;;;;;;;;31.60;40.60;;;25.03;49.50;95570.75;4954451;28;20288;-52
2023/07/04 08:07:52;;;;;;;;;;;31.60;40.50;;;25.14;50.40;95558.97;4952474;28;19918;-50
2023/07/04 08:10:18;;;;;;;;;;;31.70;40.40;;;25.41;49.58;95561.81;4954028;28;19910;-54
2023/07/04 08:12:44;;;;;;;;;;;31.80;40.40;;;25.52;49.32;95564.75;4953790;28;19918;-54
2023/07/04 08:15:10;;;;;;;;;;;32.00;40.30;;;25.72;48.46;95554.59;4952677;28;20396;-54
2023/07/04 08:17:37;;;;;;;;;;;32.20;40.10;;;25.82;47.52;95551.28;4940634;28;19918;-54
2023/07/04 08:20:05;;;;;;;;;;;32.50;39.80;;;26.01;47.44;95551.25;4952245;28;19940;-55
2023/07/04 08:22:31;;;;;;;;;;;32.80;39.30;;;25.61;48.04;95555.19;4948902;28;20001;-52
2023/07/04 08:24:58;;;;;;;;;;;33.00;39.00;;;25.79;48.92;95547.34;4943451;28;19910;-53
2023/07/04 08:27:25;;;;;;;;;;;32.90;38.60;;;26.24;45.95;95555.88;4949023;28;20361;-55
2023/07/04 08:29:51;;;;;;;;;;;33.00;38.70;;;26.16;47.43;95554.19;4944435;28;19910;-51
2023/07/04 08:32:20;;;;;;;;;;;33.00;38.60;;;26.43;46.57;95547.59;4944890;29;19914;-54
2023/07/04 08:34:47;;;;;;;;;;;33.00;38.60;;;26.65;45.97;95553.41;4943580;29;20004;-54
2023/07/04 08:37:14;;;;;;;;;;;33.10;38.50;;;27.05;45.37;95552.78;4946875;28;20005;-49
2023/07/04 08:39:46;;;;;;;;;;;33.40;38.30;;;27.42;44.88;95558.34;4942797;29;20377;-54
2023/07/04 08:42:15;;;;;;;;;;;33.80;38.10;;;28.06;43.90;95551.94;4947466;29;19921;-54
2023/07/04 08:44:49;;;;;;;;;;;34.20;37.90;;;28.07;42.46;95550.78;4944304;29;20285;-54
2023/07/04 08:47:30;;;;;;;;;;;34.50;37.70;;;28.42;41.22;95555.75;4934535;29;19910;-54
2023/07/04 08:49:59;;;;;;;;;;;34.70;37.50;;;28.61;40.19;95549.22;4947371;29;19957;-53
2023/07/04 08:52:48;;;;;;;;;;;35.00;37.10;;;28.75;39.55;95551.28;4944538;29;20277;-54
2023/07/04 08:55:15;;;;;;;;;;;35.20;36.80;;;28.56;40.44;95549.59;4946987;29;19911;-51
2023/07/04 08:57:58;;;;;;;;;;;35.20;36.50;;;28.86;39.42;95548.59;4934540;29;19919;-53
2023/07/04 09:00:28;;;;;;;;;;;35.50;36.30;;;29.46;38.92;95545.38;4942186;29;20323;-51
2023/07/04 09:03:08;;;;;;;;;;;35.80;36.30;;;29.68;37.69;95546.25;4945423;28;20343;-53
2023/07/04 09:06:04;;;;;;;;;;;35.90;36.20;;;29.78;37.77;95544.69;4950061;28;20274;-47
2023/07/04 09:08:38;;;;;;;;;;;36.30;35.70;;;29.49;37.40;95545.38;4946922;28;19941;-52
2023/07/04 09:11:11;;;;;;;;;;;36.40;35.30;;;29.44;38.06;95534.78;4954022;28;19941;-55
2023/07/04 09:13:50;;;;;;;;;;;36.50;35.00;;;29.54;38.32;95538.72;4945914;28;20005;-53
2023/07/04 09:16:30;;;;;;;;;;;36.50;34.90;;;29.53;37.60;95539.91;4952112;28;19910;-54
2023/07/04 09:19:06;;;;;;;;;;;36.50;34.70;;;29.41;37.22;95537.50;4964871;28;20012;-52
2023/07/04 09:21:34;;;;;;;;;;;36.40;34.70;;;29.20;38.22;95539.00;4954011;28;20016;-55
2023/07/04 09:24:01;;;;;;;;;;;36.30;34.50;;;29.26;37.97;95534.72;4943787;28;20402;-54
2023/07/04 09:26:44;;;;;;;;;;;36.40;34.30;;;29.19;38.07;95534.69;4955871;28;19921;-55
2023/07/04 09:29:13;;;;;;;;;;;36.60;34.10;;;29.29;38.24;95533.16;4938764;28;19910;-54
2023/07/04 09:31:42;;;;;;;;;;;36.60;34.00;;;29.73;37.12;95532.13;4940090;28;20284;-55
2023/07/04 09:34:25;;;;;;;;;;;36.90;33.80;;;29.91;36.94;95532.94;4952006;28;19911;-55
2023/07/04 09:36:53;;;;;;;;;;;37.20;33.50;;;30.04;35.94;95536.06;4964443;28;19926;-55
2023/07/04 09:39:19;;;;;;;;;;;37.30;33.30;;;29.98;36.28;95532.91;4948593;28;19910;-54
2023/07/04 09:41:58;;;;;;;;;;;37.20;33.30;;;29.95;36.23;95528.22;4950165;28;20270;-55
2023/07/04 09:44:32;;;;;;;;;;;37.00;33.30;;;29.97;35.97;95525.88;4940865;28;20381;-54
2023/07/04 09:47:01;;;;;;;;;;;36.90;33.20;;;29.73;35.64;95523.88;4954278;28;19953;-52
2023/07/04 09:49:36;;;;;;;;;;;36.70;33.00;;;29.65;35.42;95527.81;4944183;28;19910;-55
2023/07/04 09:52:23;;;;;;;;;;;36.40;32.80;;;28.96;36.67;95534.97;4948350;28;20028;-53
2023/07/04 09:55:25;;;;;;;;;;;36.00;32.80;;;28.88;36.80;95527.88;4907400;28;30952;-54
2023/07/04 09:57:51;;;;;;;;;;;35.80;32.90;;;28.74;37.54;95525.84;4937949;28;19921;-54
2023/07/04 10:00:19;;;;;;;;;;;35.70;32.80;;;28.91;37.27;95523.56;4956076;28;19949;-54
2023/07/04 10:02:48;;;;;;;;;;;35.80;32.80;;;29.03;36.50;95526.78;4953496;28;19910;-53
2023/07/04 10:05:35;;;;;;;;;;;35.70;32.80;;;28.99;36.12;95519.72;4944749;28;19914;-54
2023/07/04 10:08:19;;;;;;;;;;;35.70;32.80;;;28.91;36.44;95512.59;4954505;28;20012;-54
2023/07/04 10:10:54;;;;;;;;;;;35.60;32.80;;;28.95;36.82;95505.97;4955962;28;20044;-55
2023/07/04 10:13:36;;;;;;;;;;;35.60;32.50;;;28.90;37.36;95513.78;4936886;28;19910;-53
2023/07/04 10:16:22;;;;;;;;;;;35.60;32.40;;;28.75;38.07;95508.22;4970225;28;19914;-55
2023/07/04 10:18:48;;;;;;;;;;;35.70;32.30;;;28.86;36.32;95504.75;4955769;28;20416;-54
2023/07/04 10:21:13;;;;;;;;;;;35.70;32.20;;;28.88;36.65;95503.19;4945215;28;19910;-54
2023/07/04 10:23:39;;;;;;;;;;;35.80;32.20;;;29.06;35.32;95497.81;4955668;28;19918;-51
2023/07/04 10:26:08;;;;;;;;;;;35.80;32.00;;;29.16;35.53;95504.50;4951900;28;19992;-51
2023/07/04 10:28:34;;;;;;;;;;;35.90;32.00;;;29.45;35.27;95497.13;4946937;28;19917;-54
2023/07/04 10:31:09;;;;;;;;;;;36.10;31.90;;;29.64;34.51;95494.06;4947874;28;19949;-52
2023/07/04 10:33:48;;;;;;;;;;;36.30;31.80;;;29.82;34.11;95494.09;4947013;28;19910;-54
2023/07/04 10:36:23;;;;;;;;;;;36.60;31.70;;;29.95;34.33;95489.78;4940772;28;19910;-55
2023/07/04 10:38:54;;;;;;;;;;;36.80;31.50;;;30.25;35.13;95491.38;4951434;28;20021;-51
2023/07/04 10:41:55;;;;;;;;;;;37.00;31.30;;;29.91;33.67;95494.50;4927062;28;20436;-55
2023/07/04 10:44:29;;;;;;;;;;;37.20;31.10;;;29.72;34.86;95492.91;4950646;28;19985;-55
2023/07/04 10:47:09;;;;;;;;;;;37.10;30.80;;;29.50;34.45;95488.53;4954482;28;20332;-50
2023/07/04 10:49:54;;;;;;;;;;;36.90;30.60;;;29.41;34.57;95490.88;4954305;28;19917;-51
2023/07/04 10:52:34;;;;;;;;;;;36.70;30.70;;;29.12;36.50;95492.75;4946644;28;19910;-48
2023/07/04 10:55:02;;;;;;;;;;;36.40;30.60;;;28.51;38.39;95490.47;4936041;29;20439;-50
2023/07/04 10:58:10;;;;;;;;;;;36.10;30.60;;;27.68;40.78;95486.28;4952666;28;19922;-49
2023/07/04 11:00:59;;;;;;;;;;;35.70;30.80;;;27.28;42.15;95494.47;4934203;28;28053;-49
2023/07/04 11:04:08;;;;;;;;;;;35.20;31.00;;;27.12;42.39;95491.94;4939229;28;20308;-48
2023/07/04 11:06:47;;;;;;;;;;;34.70;31.20;;;26.77;43.40;95487.63;4936784;28;20399;-48
2023/07/04 11:09:17;;;;;;;;;;;34.30;31.40;;;26.97;43.17;95496.44;4939491;28;19923;-48
2023/07/04 11:11:49;;;;;;;;;;;34.30;31.70;;;26.83;43.20;95485.34;4952094;28;19921;-48
2023/07/04 11:14:25;;;;;;;;;;;34.30;31.70;;;26.76;43.30;95484.13;4945044;28;19910;-50
2023/07/04 11:16:56;;;;;;;;;;;34.20;31.70;;;26.78;43.64;95478.25;4948919;28;19915;-55
2023/07/04 11:19:26;;;;;;;;;;;34.30;31.70;;;26.90;43.59;95477.25;4950437;28;19925;-51
2023/07/04 11:22:04;;;;;;;;;;;34.50;31.70;;;27.46;42.41;95484.53;4941759;28;19993;-49
2023/07/04 11:24:46;;;;;;;;;;;35.00;31.50;;;28.03;41.73;95484.25;4953688;28;19917;-54
2023/07/04 11:27:16;;;;;;;;;;;35.60;31.30;;;27.98;41.92;95484.59;4938239;28;19910;-53
2023/07/04 11:29:55;;;;;;;;;;;36.00;31.20;;;28.35;41.07;95484.47;4954200;28;19960;-53
2023/07/04 11:32:39;;;;;;;;;;;36.30;31.00;;;28.66;40.43;95479.59;4945417;28;19965;-49